sensor_id;sensor_type;location;lat;lon;timestamp;P1;durP1;ratioP1;P2;durP2;ratioP2
22234;SDS011;11286;45.596;5.284;2022-09-09T00:02:19;3.63;;;1.65;;
22234;SDS011;11286;45.596;5.284;2022-09-09T00:04:48;2.78;;;1.70;;
22234;SDS011;11286;45.596;5.284;2022-09-09T00:07:26;4.00;;;1.70;;
22234;SDS011;11286;45.596;5.284;2022-09-09T00:10:23;4.35;;;1.65;;
22234;SDS011;11286;45.596;5.284;2022-09-09T00:15:54;4.75;;;1.80;;
22234;SDS011;11286;45.596;5.284;2022-09-09T00:19:24;5.35;;;1.83;;
22234;SDS011;11286;45.596;5.284;2022-09-09T00:22:20;3.55;;;1.98;;
22234;SDS011;11286;45.596;5.284;2022-09-09T00:24:49;6.65;;;1.80;;
22234;SDS011;11286;45.596;5.284;2022-09-09T00:32:47;2.67;;;1.77;;
22234;SDS011;11286;45.596;5.284;2022-09-09T00:35:24;5.30;;;2.15;;
22234;SDS011;11286;45.596;5.284;2022-09-09T00:37:52;6.47;;;2.10;;
22234;SDS011;11286;45.596;5.284;2022-09-09T00:40:26;6.00;;;1.92;;
22234;SDS011;11286;45.596;5.284;2022-09-09T00:43:55;3.67;;;1.95;;
22234;SDS011;11286;45.596;5.284;2022-09-09T00:46:38;5.75;;;1.63;;
22234;SDS011;11286;45.596;5.284;2022-09-09T00:51:29;2.47;;;1.60;;
22234;SDS011;11286;45.596;5.284;2022-09-09T00:54:14;2.90;;;1.60;;
22234;SDS011;11286;45.596;5.284;2022-09-09T00:56:47;2.20;;;1.40;;
22234;SDS011;11286;45.596;5.284;2022-09-09T00:59:27;3.38;;;1.42;;
22234;SDS011;11286;45.596;5.284;2022-09-09T01:02:12;2.33;;;1.50;;
22234;SDS011;11286;45.596;5.284;2022-09-09T01:04:55;4.05;;;1.88;;
22234;SDS011;11286;45.596;5.284;2022-09-09T01:07:26;3.97;;;1.70;;
22234;SDS011;11286;45.596;5.284;2022-09-09T01:09:58;4.95;;;1.73;;
22234;SDS011;11286;45.596;5.284;2022-09-09T01:12:28;5.00;;;1.60;;
22234;SDS011;11286;45.596;5.284;2022-09-09T01:15:19;3.78;;;1.88;;
22234;SDS011;11286;45.596;5.284;2022-09-09T01:20:23;5.20;;;1.58;;
22234;SDS011;11286;45.596;5.284;2022-09-09T01:25:56;3.10;;;1.90;;
22234;SDS011;11286;45.596;5.284;2022-09-09T01:28:33;2.72;;;1.77;;
22234;SDS011;11286;45.596;5.284;2022-09-09T01:31:02;4.43;;;1.50;;
22234;SDS011;11286;45.596;5.284;2022-09-09T01:33:31;4.32;;;1.73;;
22234;SDS011;11286;45.596;5.284;2022-09-09T01:38:31;4.50;;;1.52;;
22234;SDS011;11286;45.596;5.284;2022-09-09T01:40:58;4.60;;;1.77;;
22234;SDS011;11286;45.596;5.284;2022-09-09T01:43:24;3.33;;;1.60;;
22234;SDS011;11286;45.596;5.284;2022-09-09T01:45:53;3.30;;;1.60;;
22234;SDS011;11286;45.596;5.284;2022-09-09T01:48:21;4.93;;;1.63;;
22234;SDS011;11286;45.596;5.284;2022-09-09T01:50:48;4.90;;;1.80;;
22234;SDS011;11286;45.596;5.284;2022-09-09T01:53:15;5.30;;;1.92;;
22234;SDS011;11286;45.596;5.284;2022-09-09T02:01:56;3.72;;;1.85;;
22234;SDS011;11286;45.596;5.284;2022-09-09T02:04:45;4.50;;;2.10;;
22234;SDS011;11286;45.596;5.284;2022-09-09T02:10:22;4.00;;;1.80;;
22234;SDS011;11286;45.596;5.284;2022-09-09T02:12:53;2.85;;;1.92;;
22234;SDS011;11286;45.596;5.284;2022-09-09T02:15:38;3.42;;;2.00;;
22234;SDS011;11286;45.596;5.284;2022-09-09T02:18:06;3.38;;;2.08;;
22234;SDS011;11286;45.596;5.284;2022-09-09T02:20:34;3.60;;;2.17;;
22234;SDS011;11286;45.596;5.284;2022-09-09T02:23:03;2.70;;;1.80;;
22234;SDS011;11286;45.596;5.284;2022-09-09T02:25:30;5.53;;;2.05;;
22234;SDS011;11286;45.596;5.284;2022-09-09T02:27:55;3.33;;;1.90;;
22234;SDS011;11286;45.596;5.284;2022-09-09T02:30:25;4.80;;;2.00;;
22234;SDS011;11286;45.596;5.284;2022-09-09T02:32:56;5.97;;;2.13;;
22234;SDS011;11286;45.596;5.284;2022-09-09T02:35:24;2.55;;;2.03;;
22234;SDS011;11286;45.596;5.284;2022-09-09T02:37:53;3.45;;;1.92;;
22234;SDS011;11286;45.596;5.284;2022-09-09T02:40:25;2.97;;;2.03;;
22234;SDS011;11286;45.596;5.284;2022-09-09T02:42:50;3.55;;;2.17;;
22234;SDS011;11286;45.596;5.284;2022-09-09T02:45:19;3.90;;;1.83;;
22234;SDS011;11286;45.596;5.284;2022-09-09T02:48:02;3.97;;;2.15;;
22234;SDS011;11286;45.596;5.284;2022-09-09T02:53:43;3.42;;;2.15;;
22234;SDS011;11286;45.596;5.284;2022-09-09T02:56:20;2.63;;;2.08;;
22234;SDS011;11286;45.596;5.284;2022-09-09T02:58:49;3.80;;;2.30;;
22234;SDS011;11286;45.596;5.284;2022-09-09T03:01:16;2.95;;;2.28;;
22234;SDS011;11286;45.596;5.284;2022-09-09T03:03:42;4.47;;;2.20;;
22234;SDS011;11286;45.596;5.284;2022-09-09T03:06:09;3.90;;;1.98;;
22234;SDS011;11286;45.596;5.284;2022-09-09T03:08:36;4.03;;;2.08;;
22234;SDS011;11286;45.596;5.284;2022-09-09T03:11:02;3.80;;;1.95;;
22234;SDS011;11286;45.596;5.284;2022-09-09T03:13:28;5.53;;;2.10;;
22234;SDS011;11286;45.596;5.284;2022-09-09T03:15:54;3.90;;;2.00;;
22234;SDS011;11286;45.596;5.284;2022-09-09T03:18:20;6.68;;;2.03;;
22234;SDS011;11286;45.596;5.284;2022-09-09T03:20:46;3.63;;;2.10;;
22234;SDS011;11286;45.596;5.284;2022-09-09T03:23:16;4.70;;;2.03;;
22234;SDS011;11286;45.596;5.284;2022-09-09T03:25:48;4.97;;;2.00;;
22234;SDS011;11286;45.596;5.284;2022-09-09T03:28:14;4.60;;;2.10;;
22234;SDS011;11286;45.596;5.284;2022-09-09T03:30:40;3.63;;;2.25;;
22234;SDS011;11286;45.596;5.284;2022-09-09T03:33:06;4.88;;;2.40;;
22234;SDS011;11286;45.596;5.284;2022-09-09T03:35:31;4.63;;;2.63;;
22234;SDS011;11286;45.596;5.284;2022-09-09T03:37:57;5.20;;;2.25;;
22234;SDS011;11286;45.596;5.284;2022-09-09T03:40:23;4.68;;;2.03;;
22234;SDS011;11286;45.596;5.284;2022-09-09T03:42:48;5.95;;;2.40;;
22234;SDS011;11286;45.596;5.284;2022-09-09T03:45:14;8.35;;;2.50;;
22234;SDS011;11286;45.596;5.284;2022-09-09T03:47:40;3.33;;;2.20;;
22234;SDS011;11286;45.596;5.284;2022-09-09T03:50:06;7.68;;;2.50;;
22234;SDS011;11286;45.596;5.284;2022-09-09T03:52:38;6.00;;;2.47;;
22234;SDS011;11286;45.596;5.284;2022-09-09T03:55:05;4.00;;;2.58;;
22234;SDS011;11286;45.596;5.284;2022-09-09T03:57:32;4.70;;;2.10;;
22234;SDS011;11286;45.596;5.284;2022-09-09T04:00:00;4.10;;;2.15;;
22234;SDS011;11286;45.596;5.284;2022-09-09T04:02:28;7.35;;;2.33;;
22234;SDS011;11286;45.596;5.284;2022-09-09T04:04:53;4.20;;;1.92;;
22234;SDS011;11286;45.596;5.284;2022-09-09T04:07:19;4.22;;;2.00;;
22234;SDS011;11286;45.596;5.284;2022-09-09T04:09:44;7.30;;;2.08;;
22234;SDS011;11286;45.596;5.284;2022-09-09T04:12:10;4.78;;;2.00;;
22234;SDS011;11286;45.596;5.284;2022-09-09T04:14:38;6.35;;;2.05;;
22234;SDS011;11286;45.596;5.284;2022-09-09T04:17:04;6.40;;;2.25;;
22234;SDS011;11286;45.596;5.284;2022-09-09T04:19:31;5.78;;;2.00;;
22234;SDS011;11286;45.596;5.284;2022-09-09T04:21:57;5.05;;;2.20;;
22234;SDS011;11286;45.596;5.284;2022-09-09T04:24:23;5.63;;;2.20;;
22234;SDS011;11286;45.596;5.284;2022-09-09T04:26:50;3.00;;;2.30;;
22234;SDS011;11286;45.596;5.284;2022-09-09T04:29:15;4.57;;;1.80;;
22234;SDS011;11286;45.596;5.284;2022-09-09T04:31:41;6.70;;;2.20;;
22234;SDS011;11286;45.596;5.284;2022-09-09T04:34:07;7.72;;;2.22;;
22234;SDS011;11286;45.596;5.284;2022-09-09T04:36:34;5.15;;;2.50;;
22234;SDS011;11286;45.596;5.284;2022-09-09T04:39:00;3.10;;;2.00;;
22234;SDS011;11286;45.596;5.284;2022-09-09T04:41:26;3.22;;;2.10;;
22234;SDS011;11286;45.596;5.284;2022-09-09T04:43:52;7.22;;;2.10;;
22234;SDS011;11286;45.596;5.284;2022-09-09T04:46:18;3.53;;;2.10;;
22234;SDS011;11286;45.596;5.284;2022-09-09T04:48:45;6.25;;;2.13;;
22234;SDS011;11286;45.596;5.284;2022-09-09T04:51:11;4.97;;;2.30;;
22234;SDS011;11286;45.596;5.284;2022-09-09T04:53:39;3.22;;;2.00;;
22234;SDS011;11286;45.596;5.284;2022-09-09T04:56:08;4.72;;;2.20;;
22234;SDS011;11286;45.596;5.284;2022-09-09T04:58:36;5.50;;;2.55;;
22234;SDS011;11286;45.596;5.284;2022-09-09T05:01:13;4.50;;;2.10;;
22234;SDS011;11286;45.596;5.284;2022-09-09T05:03:42;4.00;;;2.30;;
22234;SDS011;11286;45.596;5.284;2022-09-09T05:06:11;3.58;;;2.10;;
22234;SDS011;11286;45.596;5.284;2022-09-09T05:08:38;6.18;;;2.33;;
22234;SDS011;11286;45.596;5.284;2022-09-09T05:11:22;8.65;;;2.35;;
22234;SDS011;11286;45.596;5.284;2022-09-09T05:13:49;3.78;;;1.95;;
22234;SDS011;11286;45.596;5.284;2022-09-09T05:16:16;3.40;;;2.22;;
22234;SDS011;11286;45.596;5.284;2022-09-09T05:18:43;4.82;;;2.10;;
22234;SDS011;11286;45.596;5.284;2022-09-09T05:21:09;3.78;;;2.00;;
22234;SDS011;11286;45.596;5.284;2022-09-09T05:23:36;7.97;;;1.98;;
22234;SDS011;11286;45.596;5.284;2022-09-09T05:26:02;4.43;;;2.20;;
22234;SDS011;11286;45.596;5.284;2022-09-09T05:28:29;5.05;;;2.17;;
22234;SDS011;11286;45.596;5.284;2022-09-09T05:31:08;6.35;;;2.53;;
22234;SDS011;11286;45.596;5.284;2022-09-09T05:33:37;6.55;;;2.10;;
22234;SDS011;11286;45.596;5.284;2022-09-09T05:36:06;4.85;;;2.20;;
22234;SDS011;11286;45.596;5.284;2022-09-09T05:38:33;3.08;;;2.10;;
22234;SDS011;11286;45.596;5.284;2022-09-09T05:41:00;5.18;;;2.00;;
22234;SDS011;11286;45.596;5.284;2022-09-09T05:43:27;7.28;;;2.30;;
22234;SDS011;11286;45.596;5.284;2022-09-09T05:46:07;4.60;;;2.00;;
22234;SDS011;11286;45.596;5.284;2022-09-09T05:48:35;3.72;;;2.10;;
22234;SDS011;11286;45.596;5.284;2022-09-09T05:51:03;5.50;;;2.30;;
22234;SDS011;11286;45.596;5.284;2022-09-09T05:53:30;5.68;;;1.80;;
22234;SDS011;11286;45.596;5.284;2022-09-09T05:56:06;5.85;;;2.10;;
22234;SDS011;11286;45.596;5.284;2022-09-09T05:58:35;6.25;;;2.38;;
22234;SDS011;11286;45.596;5.284;2022-09-09T06:01:05;7.78;;;2.40;;
22234;SDS011;11286;45.596;5.284;2022-09-09T06:03:37;7.00;;;2.10;;
22234;SDS011;11286;45.596;5.284;2022-09-09T06:06:04;5.70;;;2.70;;
22234;SDS011;11286;45.596;5.284;2022-09-09T06:08:32;6.05;;;2.35;;
22234;SDS011;11286;45.596;5.284;2022-09-09T06:11:06;6.18;;;2.47;;
22234;SDS011;11286;45.596;5.284;2022-09-09T06:13:34;6.70;;;2.30;;
22234;SDS011;11286;45.596;5.284;2022-09-09T06:16:02;7.07;;;2.63;;
22234;SDS011;11286;45.596;5.284;2022-09-09T06:18:28;7.00;;;2.60;;
22234;SDS011;11286;45.596;5.284;2022-09-09T06:23:20;5.55;;;2.60;;
22234;SDS011;11286;45.596;5.284;2022-09-09T06:25:46;6.30;;;2.88;;
22234;SDS011;11286;45.596;5.284;2022-09-09T06:28:12;5.75;;;2.72;;
22234;SDS011;11286;45.596;5.284;2022-09-09T06:30:38;9.02;;;2.63;;
22234;SDS011;11286;45.596;5.284;2022-09-09T06:33:04;10.25;;;2.60;;
22234;SDS011;11286;45.596;5.284;2022-09-09T06:35:30;9.60;;;2.13;;
22234;SDS011;11286;45.596;5.284;2022-09-09T06:37:56;5.63;;;2.50;;
22234;SDS011;11286;45.596;5.284;2022-09-09T06:40:23;6.45;;;2.50;;
22234;SDS011;11286;45.596;5.284;2022-09-09T06:42:49;5.53;;;2.38;;
22234;SDS011;11286;45.596;5.284;2022-09-09T06:45:15;4.50;;;2.20;;
22234;SDS011;11286;45.596;5.284;2022-09-09T06:47:41;5.45;;;2.00;;
22234;SDS011;11286;45.596;5.284;2022-09-09T06:50:07;4.20;;;2.05;;
22234;SDS011;11286;45.596;5.284;2022-09-09T06:52:33;7.78;;;2.15;;
22234;SDS011;11286;45.596;5.284;2022-09-09T06:54:59;4.30;;;2.10;;
22234;SDS011;11286;45.596;5.284;2022-09-09T06:57:24;4.43;;;2.17;;
22234;SDS011;11286;45.596;5.284;2022-09-09T06:59:50;4.50;;;2.15;;
22234;SDS011;11286;45.596;5.284;2022-09-09T07:02:15;5.28;;;2.35;;
22234;SDS011;11286;45.596;5.284;2022-09-09T07:04:41;5.70;;;2.50;;
22234;SDS011;11286;45.596;5.284;2022-09-09T07:07:08;6.10;;;2.40;;
22234;SDS011;11286;45.596;5.284;2022-09-09T07:09:34;7.50;;;2.63;;
22234;SDS011;11286;45.596;5.284;2022-09-09T07:12:00;5.75;;;2.28;;
22234;SDS011;11286;45.596;5.284;2022-09-09T07:14:26;4.65;;;1.90;;
22234;SDS011;11286;45.596;5.284;2022-09-09T07:16:52;6.18;;;2.10;;
22234;SDS011;11286;45.596;5.284;2022-09-09T07:19:18;4.57;;;2.10;;
22234;SDS011;11286;45.596;5.284;2022-09-09T07:21:43;4.47;;;2.28;;
22234;SDS011;11286;45.596;5.284;2022-09-09T07:24:10;5.15;;;2.20;;
22234;SDS011;11286;45.596;5.284;2022-09-09T07:26:36;4.18;;;2.00;;
22234;SDS011;11286;45.596;5.284;2022-09-09T07:29:03;5.05;;;1.42;;
22234;SDS011;11286;45.596;5.284;2022-09-09T07:31:31;3.65;;;1.40;;
22234;SDS011;11286;45.596;5.284;2022-09-09T07:33:59;3.17;;;1.33;;
22234;SDS011;11286;45.596;5.284;2022-09-09T07:36:26;2.47;;;1.50;;
22234;SDS011;11286;45.596;5.284;2022-09-09T07:38:57;6.70;;;1.50;;
22234;SDS011;11286;45.596;5.284;2022-09-09T07:43:50;4.53;;;1.60;;
22234;SDS011;11286;45.596;5.284;2022-09-09T07:46:17;6.85;;;1.50;;
22234;SDS011;11286;45.596;5.284;2022-09-09T07:48:48;3.95;;;1.50;;
22234;SDS011;11286;45.596;5.284;2022-09-09T07:51:28;4.93;;;1.20;;
22234;SDS011;11286;45.596;5.284;2022-09-09T07:53:57;4.85;;;1.80;;
22234;SDS011;11286;45.596;5.284;2022-09-09T07:56:25;6.10;;;2.80;;
22234;SDS011;11286;45.596;5.284;2022-09-09T07:58:52;5.05;;;1.60;;
22234;SDS011;11286;45.596;5.284;2022-09-09T08:01:26;5.68;;;1.35;;
22234;SDS011;11286;45.596;5.284;2022-09-09T08:06:30;4.07;;;1.50;;
22234;SDS011;11286;45.596;5.284;2022-09-09T08:08:58;3.15;;;1.50;;
22234;SDS011;11286;45.596;5.284;2022-09-09T08:11:24;5.60;;;1.60;;
22234;SDS011;11286;45.596;5.284;2022-09-09T08:13:51;3.47;;;1.60;;
22234;SDS011;11286;45.596;5.284;2022-09-09T08:16:25;3.85;;;1.70;;
22234;SDS011;11286;45.596;5.284;2022-09-09T08:18:52;3.30;;;1.40;;
22234;SDS011;11286;45.596;5.284;2022-09-09T08:21:21;6.53;;;1.75;;
22234;SDS011;11286;45.596;5.284;2022-09-09T08:23:57;5.97;;;1.48;;
22234;SDS011;11286;45.596;5.284;2022-09-09T08:26:26;4.95;;;1.98;;
22234;SDS011;11286;45.596;5.284;2022-09-09T08:28:56;3.63;;;1.70;;
22234;SDS011;11286;45.596;5.284;2022-09-09T08:31:25;4.97;;;1.50;;
22234;SDS011;11286;45.596;5.284;2022-09-09T08:33:56;4.10;;;1.40;;
22234;SDS011;11286;45.596;5.284;2022-09-09T08:36:24;3.97;;;1.55;;
22234;SDS011;11286;45.596;5.284;2022-09-09T08:38:52;5.05;;;1.25;;
22234;SDS011;11286;45.596;5.284;2022-09-09T08:52:15;3.42;;;1.20;;
22234;SDS011;11286;45.596;5.284;2022-09-09T08:54:46;4.75;;;1.50;;
22234;SDS011;11286;45.596;5.284;2022-09-09T08:57:19;2.83;;;1.02;;
22234;SDS011;11286;45.596;5.284;2022-09-09T08:59:51;4.03;;;1.20;;
22234;SDS011;11286;45.596;5.284;2022-09-09T09:02:34;3.25;;;1.25;;
22234;SDS011;11286;45.596;5.284;2022-09-09T09:06:00;2.95;;;0.90;;
22234;SDS011;11286;45.596;5.284;2022-09-09T09:11:38;1.58;;;0.90;;
22234;SDS011;11286;45.596;5.284;2022-09-09T09:14:11;3.40;;;1.00;;
22234;SDS011;11286;45.596;5.284;2022-09-09T09:16:46;3.53;;;1.35;;
22234;SDS011;11286;45.596;5.284;2022-09-09T09:19:17;3.67;;;0.90;;
22234;SDS011;11286;45.596;5.284;2022-09-09T09:21:44;2.65;;;0.98;;
22234;SDS011;11286;45.596;5.284;2022-09-09T09:27:12;3.13;;;1.10;;
22234;SDS011;11286;45.596;5.284;2022-09-09T09:29:40;3.40;;;1.05;;
22234;SDS011;11286;45.596;5.284;2022-09-09T09:32:09;4.20;;;1.10;;
22234;SDS011;11286;45.596;5.284;2022-09-09T09:34:40;2.00;;;0.95;;
22234;SDS011;11286;45.596;5.284;2022-09-09T09:37:07;3.83;;;1.00;;
22234;SDS011;11286;45.596;5.284;2022-09-09T09:39:44;3.42;;;0.90;;
22234;SDS011;11286;45.596;5.284;2022-09-09T09:42:11;1.95;;;0.80;;
22234;SDS011;11286;45.596;5.284;2022-09-09T09:44:39;4.25;;;1.00;;
22234;SDS011;11286;45.596;5.284;2022-09-09T09:52:28;2.47;;;1.10;;
22234;SDS011;11286;45.596;5.284;2022-09-09T09:54:55;3.05;;;0.90;;
22234;SDS011;11286;45.596;5.284;2022-09-09T09:57:27;2.55;;;1.00;;
22234;SDS011;11286;45.596;5.284;2022-09-09T10:00:14;2.67;;;0.93;;
22234;SDS011;11286;45.596;5.284;2022-09-09T10:02:42;3.30;;;1.10;;
22234;SDS011;11286;45.596;5.284;2022-09-09T10:05:13;3.10;;;0.93;;
22234;SDS011;11286;45.596;5.284;2022-09-09T10:08:00;3.40;;;1.20;;
22234;SDS011;11286;45.596;5.284;2022-09-09T10:10:34;2.22;;;1.02;;
22234;SDS011;11286;45.596;5.284;2022-09-09T10:13:14;2.38;;;0.90;;
22234;SDS011;11286;45.596;5.284;2022-09-09T10:18:39;3.05;;;0.90;;
22234;SDS011;11286;45.596;5.284;2022-09-09T10:30:22;2.13;;;0.80;;
22234;SDS011;11286;45.596;5.284;2022-09-09T10:33:01;2.15;;;1.00;;
22234;SDS011;11286;45.596;5.284;2022-09-09T10:35:35;2.20;;;0.90;;
22234;SDS011;11286;45.596;5.284;2022-09-09T10:56:36;2.40;;;0.90;;
22234;SDS011;11286;45.596;5.284;2022-09-09T10:59:12;3.88;;;2.00;;
22234;SDS011;11286;45.596;5.284;2022-09-09T11:01:50;3.00;;;1.15;;
22234;SDS011;11286;45.596;5.284;2022-09-09T11:04:22;1.33;;;0.80;;
22234;SDS011;11286;45.596;5.284;2022-09-09T11:06:56;2.97;;;1.08;;
22234;SDS011;11286;45.596;5.284;2022-09-09T11:09:23;2.90;;;1.05;;
22234;SDS011;11286;45.596;5.284;2022-09-09T11:11:54;3.13;;;0.90;;
22234;SDS011;11286;45.596;5.284;2022-09-09T11:17:22;2.75;;;0.90;;
22234;SDS011;11286;45.596;5.284;2022-09-09T11:19:58;2.55;;;0.82;;
22234;SDS011;11286;45.596;5.284;2022-09-09T11:25:10;4.45;;;0.80;;
22234;SDS011;11286;45.596;5.284;2022-09-09T11:27:53;1.25;;;0.80;;
22234;SDS011;11286;45.596;5.284;2022-09-09T11:30:37;3.28;;;0.70;;
22234;SDS011;11286;45.596;5.284;2022-09-09T11:33:28;4.03;;;1.10;;
22234;SDS011;11286;45.596;5.284;2022-09-09T11:44:44;1.35;;;0.55;;
22234;SDS011;11286;45.596;5.284;2022-09-09T11:47:19;2.45;;;0.68;;
22234;SDS011;11286;45.596;5.284;2022-09-09T11:49:51;2.55;;;0.90;;
22234;SDS011;11286;45.596;5.284;2022-09-09T11:55:00;2.13;;;0.80;;
22234;SDS011;11286;45.596;5.284;2022-09-09T11:57:36;1.40;;;0.75;;
22234;SDS011;11286;45.596;5.284;2022-09-09T12:00:03;1.27;;;0.70;;
22234;SDS011;11286;45.596;5.284;2022-09-09T12:02:29;1.58;;;0.68;;
22234;SDS011;11286;45.596;5.284;2022-09-09T12:10:22;2.35;;;0.88;;
22234;SDS011;11286;45.596;5.284;2022-09-09T12:15:51;2.10;;;0.90;;
22234;SDS011;11286;45.596;5.284;2022-09-09T12:18:22;1.85;;;0.73;;
22234;SDS011;11286;45.596;5.284;2022-09-09T12:26:18;1.35;;;0.68;;
22234;SDS011;11286;45.596;5.284;2022-09-09T12:31:36;2.35;;;0.90;;
22234;SDS011;11286;45.596;5.284;2022-09-09T12:37:29;1.80;;;0.70;;
22234;SDS011;11286;45.596;5.284;2022-09-09T12:40:00;2.33;;;0.80;;
22234;SDS011;11286;45.596;5.284;2022-09-09T12:42:28;1.38;;;0.80;;
22234;SDS011;11286;45.596;5.284;2022-09-09T12:45:02;1.60;;;1.02;;
22234;SDS011;11286;45.596;5.284;2022-09-09T12:47:44;1.30;;;0.57;;
22234;SDS011;11286;45.596;5.284;2022-09-09T12:52:46;1.25;;;0.70;;
22234;SDS011;11286;45.596;5.284;2022-09-09T12:55:18;3.10;;;0.70;;
22234;SDS011;11286;45.596;5.284;2022-09-09T12:57:46;2.33;;;0.70;;
22234;SDS011;11286;45.596;5.284;2022-09-09T13:00:20;1.70;;;0.70;;
22234;SDS011;11286;45.596;5.284;2022-09-09T13:05:16;2.03;;;0.65;;
22234;SDS011;11286;45.596;5.284;2022-09-09T13:08:02;2.05;;;0.70;;
22234;SDS011;11286;45.596;5.284;2022-09-09T13:10:31;1.92;;;0.88;;
22234;SDS011;11286;45.596;5.284;2022-09-09T13:13:15;1.80;;;0.77;;
22234;SDS011;11286;45.596;5.284;2022-09-09T13:15:51;1.95;;;0.98;;
22234;SDS011;11286;45.596;5.284;2022-09-09T13:18:21;2.03;;;0.70;;
22234;SDS011;11286;45.596;5.284;2022-09-09T13:20:49;2.22;;;0.70;;
22234;SDS011;11286;45.596;5.284;2022-09-09T13:23:16;1.02;;;0.73;;
22234;SDS011;11286;45.596;5.284;2022-09-09T13:26:00;1.23;;;0.70;;
22234;SDS011;11286;45.596;5.284;2022-09-09T13:28:29;1.75;;;0.63;;
22234;SDS011;11286;45.596;5.284;2022-09-09T13:31:03;3.03;;;1.23;;
22234;SDS011;11286;45.596;5.284;2022-09-09T13:33:37;2.35;;;0.75;;
22234;SDS011;11286;45.596;5.284;2022-09-09T13:36:05;1.88;;;0.82;;
22234;SDS011;11286;45.596;5.284;2022-09-09T13:38:37;2.45;;;0.95;;
22234;SDS011;11286;45.596;5.284;2022-09-09T13:41:08;1.63;;;0.75;;
22234;SDS011;11286;45.596;5.284;2022-09-09T13:43:45;2.58;;;0.70;;
22234;SDS011;11286;45.596;5.284;2022-09-09T13:48:59;2.97;;;0.70;;
22234;SDS011;11286;45.596;5.284;2022-09-09T13:51:46;1.40;;;0.70;;
22234;SDS011;11286;45.596;5.284;2022-09-09T13:54:16;2.90;;;0.70;;
22234;SDS011;11286;45.596;5.284;2022-09-09T13:56:43;1.65;;;0.75;;
22234;SDS011;11286;45.596;5.284;2022-09-09T13:59:11;1.10;;;0.60;;
22234;SDS011;11286;45.596;5.284;2022-09-09T14:01:46;3.38;;;0.80;;
22234;SDS011;11286;45.596;5.284;2022-09-09T14:04:14;1.38;;;0.60;;
22234;SDS011;11286;45.596;5.284;2022-09-09T14:06:40;2.97;;;0.93;;
22234;SDS011;11286;45.596;5.284;2022-09-09T14:09:07;4.25;;;0.93;;
22234;SDS011;11286;45.596;5.284;2022-09-09T14:11:35;2.38;;;0.82;;
22234;SDS011;11286;45.596;5.284;2022-09-09T14:14:01;1.48;;;0.68;;
22234;SDS011;11286;45.596;5.284;2022-09-09T14:16:26;1.05;;;0.60;;
22234;SDS011;11286;45.596;5.284;2022-09-09T14:18:53;0.82;;;0.70;;
22234;SDS011;11286;45.596;5.284;2022-09-09T14:21:21;1.40;;;0.70;;
22234;SDS011;11286;45.596;5.284;2022-09-09T14:23:46;2.55;;;0.90;;
22234;SDS011;11286;45.596;5.284;2022-09-09T14:26:13;2.80;;;0.88;;
22234;SDS011;11286;45.596;5.284;2022-09-09T14:28:39;1.38;;;0.60;;
22234;SDS011;11286;45.596;5.284;2022-09-09T14:31:05;3.20;;;0.80;;
22234;SDS011;11286;45.596;5.284;2022-09-09T14:33:31;1.38;;;0.73;;
22234;SDS011;11286;45.596;5.284;2022-09-09T14:35:58;2.45;;;1.00;;
22234;SDS011;11286;45.596;5.284;2022-09-09T14:38:25;2.33;;;0.90;;
22234;SDS011;11286;45.596;5.284;2022-09-09T14:40:53;3.35;;;0.70;;
22234;SDS011;11286;45.596;5.284;2022-09-09T14:43:19;1.70;;;0.80;;
22234;SDS011;11286;45.596;5.284;2022-09-09T14:45:45;2.13;;;0.90;;
22234;SDS011;11286;45.596;5.284;2022-09-09T14:48:16;2.10;;;0.82;;
22234;SDS011;11286;45.596;5.284;2022-09-09T14:50:42;2.22;;;0.65;;
22234;SDS011;11286;45.596;5.284;2022-09-09T14:53:08;1.40;;;0.70;;
22234;SDS011;11286;45.596;5.284;2022-09-09T14:55:35;2.20;;;1.15;;
22234;SDS011;11286;45.596;5.284;2022-09-09T14:58:01;1.65;;;0.70;;
22234;SDS011;11286;45.596;5.284;2022-09-09T15:00:28;2.13;;;0.82;;
22234;SDS011;11286;45.596;5.284;2022-09-09T15:02:54;3.40;;;1.00;;
22234;SDS011;11286;45.596;5.284;2022-09-09T15:05:21;1.55;;;0.60;;
22234;SDS011;11286;45.596;5.284;2022-09-09T15:07:47;1.48;;;0.77;;
22234;SDS011;11286;45.596;5.284;2022-09-09T15:10:15;1.80;;;0.75;;
22234;SDS011;11286;45.596;5.284;2022-09-09T15:12:42;2.00;;;0.80;;
22234;SDS011;11286;45.596;5.284;2022-09-09T15:15:08;1.95;;;0.90;;
22234;SDS011;11286;45.596;5.284;2022-09-09T15:17:34;3.53;;;0.95;;
22234;SDS011;11286;45.596;5.284;2022-09-09T15:20:01;2.97;;;0.80;;
22234;SDS011;11286;45.596;5.284;2022-09-09T15:22:30;1.73;;;0.80;;
22234;SDS011;11286;45.596;5.284;2022-09-09T15:24:56;2.53;;;1.13;;
22234;SDS011;11286;45.596;5.284;2022-09-09T15:27:22;1.90;;;0.90;;
22234;SDS011;11286;45.596;5.284;2022-09-09T15:29:48;1.20;;;0.70;;
22234;SDS011;11286;45.596;5.284;2022-09-09T15:32:15;2.05;;;0.75;;
22234;SDS011;11286;45.596;5.284;2022-09-09T15:34:40;1.65;;;0.82;;
22234;SDS011;11286;45.596;5.284;2022-09-09T15:37:09;1.98;;;0.80;;
22234;SDS011;11286;45.596;5.284;2022-09-09T15:39:38;2.63;;;0.80;;
22234;SDS011;11286;45.596;5.284;2022-09-09T15:42:04;1.50;;;0.80;;
22234;SDS011;11286;45.596;5.284;2022-09-09T15:44:41;2.80;;;1.08;;
22234;SDS011;11286;45.596;5.284;2022-09-09T15:47:07;2.63;;;0.80;;
22234;SDS011;11286;45.596;5.284;2022-09-09T15:49:37;3.40;;;0.95;;
22234;SDS011;11286;45.596;5.284;2022-09-09T15:52:03;4.60;;;1.13;;
22234;SDS011;11286;45.596;5.284;2022-09-09T15:54:33;2.75;;;1.08;;
22234;SDS011;11286;45.596;5.284;2022-09-09T15:57:01;1.45;;;0.63;;
22234;SDS011;11286;45.596;5.284;2022-09-09T15:59:29;2.20;;;1.02;;
22234;SDS011;11286;45.596;5.284;2022-09-09T16:01:55;3.55;;;1.35;;
22234;SDS011;11286;45.596;5.284;2022-09-09T16:04:23;1.45;;;0.75;;
22234;SDS011;11286;45.596;5.284;2022-09-09T16:06:56;2.05;;;1.10;;
22234;SDS011;11286;45.596;5.284;2022-09-09T16:09:29;2.72;;;0.80;;
22234;SDS011;11286;45.596;5.284;2022-09-09T16:11:56;1.40;;;0.73;;
22234;SDS011;11286;45.596;5.284;2022-09-09T16:14:23;1.48;;;0.80;;
22234;SDS011;11286;45.596;5.284;2022-09-09T16:16:50;2.20;;;1.00;;
22234;SDS011;11286;45.596;5.284;2022-09-09T16:19:17;3.17;;;1.00;;
22234;SDS011;11286;45.596;5.284;2022-09-09T16:21:43;3.67;;;0.90;;
22234;SDS011;11286;45.596;5.284;2022-09-09T16:24:11;1.58;;;0.95;;
22234;SDS011;11286;45.596;5.284;2022-09-09T16:26:40;2.42;;;1.27;;
22234;SDS011;11286;45.596;5.284;2022-09-09T16:29:09;3.10;;;1.00;;
22234;SDS011;11286;45.596;5.284;2022-09-09T16:31:35;2.28;;;1.10;;
22234;SDS011;11286;45.596;5.284;2022-09-09T16:34:01;3.50;;;0.88;;
22234;SDS011;11286;45.596;5.284;2022-09-09T16:36:29;3.97;;;0.93;;
22234;SDS011;11286;45.596;5.284;2022-09-09T16:39:00;2.67;;;1.00;;
22234;SDS011;11286;45.596;5.284;2022-09-09T16:41:28;1.73;;;0.75;;
22234;SDS011;11286;45.596;5.284;2022-09-09T16:43:55;2.53;;;1.00;;
22234;SDS011;11286;45.596;5.284;2022-09-09T16:46:22;3.20;;;0.77;;
22234;SDS011;11286;45.596;5.284;2022-09-09T16:48:49;1.98;;;0.70;;
22234;SDS011;11286;45.596;5.284;2022-09-09T16:51:17;3.65;;;1.00;;
22234;SDS011;11286;45.596;5.284;2022-09-09T16:53:44;2.42;;;0.90;;
22234;SDS011;11286;45.596;5.284;2022-09-09T16:56:11;1.88;;;0.90;;
22234;SDS011;11286;45.596;5.284;2022-09-09T16:58:38;2.03;;;0.73;;
22234;SDS011;11286;45.596;5.284;2022-09-09T17:01:04;2.17;;;0.80;;
22234;SDS011;11286;45.596;5.284;2022-09-09T17:03:30;2.45;;;0.70;;
22234;SDS011;11286;45.596;5.284;2022-09-09T17:05:57;3.80;;;1.00;;
22234;SDS011;11286;45.596;5.284;2022-09-09T17:08:27;1.45;;;0.70;;
22234;SDS011;11286;45.596;5.284;2022-09-09T17:10:54;1.75;;;0.80;;
22234;SDS011;11286;45.596;5.284;2022-09-09T17:13:20;2.03;;;0.90;;
22234;SDS011;11286;45.596;5.284;2022-09-09T17:15:46;2.28;;;0.70;;
22234;SDS011;11286;45.596;5.284;2022-09-09T17:18:11;4.78;;;1.00;;
22234;SDS011;11286;45.596;5.284;2022-09-09T17:20:41;3.22;;;1.10;;
22234;SDS011;11286;45.596;5.284;2022-09-09T17:23:10;1.88;;;0.82;;